Time;durP1;ratioP1;P1;durP2;ratioP2;P2;SDS_P1;SDS_P2;PMS_P1;PMS_P2;Temp;Humidity;BMP_temperature;BMP_pressure;BME280_temperature;BME280_humidity;BME280_pressure;Samples;Min_cycle;Max_cycle;Signal;HPM_P1;HPM_P2
2022/08/03 00:00:40;;;;;;;6.60;3.22;;;;;;;;;;5091809;28;20091;-73
2022/08/03 00:03:07;;;;;;;8.20;3.50;;;;;;;;;;5082028;28;20028;-71
2022/08/03 00:05:33;;;;;;;5.07;2.55;;;;;;;;;;5092054;28;20020;-71
2022/08/03 00:08:00;;;;;;;4.45;2.55;;;;;;;;;;5091931;28;20020;-71
2022/08/03 00:10:26;;;;;;;6.18;3.00;;;;;;;;;;5089386;28;20032;-71
2022/08/03 00:12:53;;;;;;;7.18;2.90;;;;;;;;;;5089132;28;20020;-71
2022/08/03 00:15:19;;;;;;;6.20;3.22;;;;;;;;;;5086862;28;20040;-71
2022/08/03 00:17:45;;;;;;;7.72;2.92;;;;;;;;;;5086779;28;20023;-69
2022/08/03 00:20:12;;;;;;;9.68;2.60;;;;;;;;;;5089559;28;20034;-71
2022/08/03 00:22:38;;;;;;;8.00;2.40;;;;;;;;;;5072326;28;20061;-71
2022/08/03 00:25:05;;;;;;;6.35;2.63;;;;;;;;;;5087762;28;20040;-71
2022/08/03 00:27:31;;;;;;;5.90;2.28;;;;;;;;;;5073108;28;20249;-68
2022/08/03 00:29:57;;;;;;;7.20;2.60;;;;;;;;;;5091938;28;20023;-68
2022/08/03 00:32:23;;;;;;;7.30;2.53;;;;;;;;;;5092440;28;20421;-68
2022/08/03 00:34:49;;;;;;;8.13;3.10;;;;;;;;;;5087859;28;20108;-68
2022/08/03 00:37:15;;;;;;;5.90;2.60;;;;;;;;;;5091086;28;20043;-69
2022/08/03 00:39:44;;;;;;;6.45;2.60;;;;;;;;;;5089039;28;20503;-70
2022/08/03 00:42:10;;;;;;;12.23;3.20;;;;;;;;;;5088098;28;20024;-73
2022/08/03 00:44:40;;;;;;;9.57;2.10;;;;;;;;;;5094351;28;20020;-71
2022/08/03 00:47:09;;;;;;;7.15;2.58;;;;;;;;;;5086818;28;20032;-71
2022/08/03 00:49:35;;;;;;;7.20;2.17;;;;;;;;;;5086571;28;20027;-70
2022/08/03 00:52:02;;;;;;;6.22;1.85;;;;;;;;;;5086709;28;20023;-70
2022/08/03 00:54:28;;;;;;;4.65;2.42;;;;;;;;;;5087638;28;20043;-70
2022/08/03 00:56:54;;;;;;;9.35;3.72;;;;;;;;;;5088436;28;20036;-70
2022/08/03 00:59:20;;;;;;;4.30;2.55;;;;;;;;;;5090850;28;20036;-70
2022/08/03 01:01:47;;;;;;;8.38;2.60;;;;;;;;;;5089986;28;20031;-70
2022/08/03 01:04:13;;;;;;;7.15;3.00;;;;;;;;;;5085040;28;20550;-71
2022/08/03 01:06:58;;;;;;;7.90;3.53;;;;;;;;;;5068628;28;20399;-70
2022/08/03 01:09:30;;;;;;;7.45;3.35;;;;;;;;;;5073799;28;20039;-69
2022/08/03 01:12:02;;;;;;;4.40;2.35;;;;;;;;;;5088541;28;20044;-70
2022/08/03 01:14:29;;;;;;;;;;;;;;;;;;5087139;28;20058;-72
2022/08/03 01:17:01;;;;;;;9.27;2.90;;;;;;;;;;5089067;28;19923;-71
2022/08/03 01:19:27;;;;;;;;;;;;;;;;;;5087367;28;20567;-70
2022/08/03 01:21:56;;;;;;;10.68;2.90;;;;;;;;;;5088357;28;19920;-70
2022/08/03 01:24:22;;;;;;;7.20;2.95;;;;;;;;;;5086499;28;20024;-71
2022/08/03 01:26:48;;;;;;;7.72;2.90;;;;;;;;;;5091521;28;20027;-70
2022/08/03 01:29:33;;;;;;;5.68;2.30;;;;;;;;;;5091106;28;20032;-70
2022/08/03 01:32:02;;;;;;;10.27;2.63;;;;;;;;;;5085501;28;20035;-71
2022/08/03 01:34:31;;;;;;;5.85;2.38;;;;;;;;;;5090487;28;20055;-71
2022/08/03 01:36:59;;;;;;;20.60;3.03;;;;;;;;;;5085882;28;20032;-70
2022/08/03 01:39:25;;;;;;;9.02;2.55;;;;;;;;;;5086568;28;20043;-70
2022/08/03 01:41:59;;;;;;;12.02;3.08;;;;;;;;;;5088340;28;20188;-70
2022/08/03 01:44:30;;;;;;;7.63;2.40;;;;;;;;;;5085480;28;20031;-71
2022/08/03 01:46:58;;;;;;;5.03;2.95;;;;;;;;;;5086380;28;20133;-71
2022/08/03 01:49:25;;;;;;;5.55;2.47;;;;;;;;;;5090801;28;20040;-71
2022/08/03 01:51:52;;;;;;;7.80;1.88;;;;;;;;;;5087421;28;20032;-70
2022/08/03 01:54:18;;;;;;;6.68;1.98;;;;;;;;;;5087174;28;20044;-70
2022/08/03 01:56:46;;;;;;;9.07;1.83;;;;;;;;;;5089388;28;20169;-71
2022/08/03 01:59:13;;;;;;;4.75;1.70;;;;;;;;;;5087126;28;20031;-71
2022/08/03 02:01:39;;;;;;;3.92;1.58;;;;;;;;;;5087518;28;20023;-71
2022/08/03 02:04:06;;;;;;;4.80;1.35;;;;;;;;;;5088327;28;20024;-70
2022/08/03 02:06:33;;;;;;;13.30;2.25;;;;;;;;;;5090230;28;20035;-71
2022/08/03 02:09:00;;;;;;;29.60;2.78;;;;;;;;;;5087166;28;20047;-70
2022/08/03 02:11:27;;;;;;;48.90;4.03;;;;;;;;;;5087616;28;20032;-71
2022/08/03 02:13:54;;;;;;;11.43;2.03;;;;;;;;;;5088966;28;20016;-71
2022/08/03 02:16:21;;;;;;;36.03;2.92;;;;;;;;;;5086029;28;20093;-71
2022/08/03 02:18:47;;;;;;;6.25;2.08;;;;;;;;;;5089820;28;20123;-70
2022/08/03 02:21:14;;;;;;;12.65;2.00;;;;;;;;;;5086880;28;20031;-71
2022/08/03 02:23:40;;;;;;;9.57;2.25;;;;;;;;;;5091032;28;20020;-70
2022/08/03 02:26:08;;;;;;;83.60;5.13;;;;;;;;;;5087347;28;20502;-70
2022/08/03 02:28:36;;;;;;;33.95;3.90;;;;;;;;;;5089827;28;20032;-70
2022/08/03 02:31:05;;;;;;;25.55;3.13;;;;;;;;;;5086235;28;20426;-70
2022/08/03 02:33:33;;;;;;;44.65;4.03;;;;;;;;;;5086980;28;20043;-71
2022/08/03 02:36:00;;;;;;;11.63;2.50;;;;;;;;;;5089253;28;20038;-71
2022/08/03 02:38:30;;;;;;;31.67;3.22;;;;;;;;;;5087798;28;20062;-72
2022/08/03 02:40:57;;;;;;;9.70;2.13;;;;;;;;;;5087479;28;20024;-71
2022/08/03 02:43:24;;;;;;;6.72;1.92;;;;;;;;;;5087310;28;20441;-70
2022/08/03 02:45:51;;;;;;;6.50;2.50;;;;;;;;;;5088464;28;20020;-70
2022/08/03 02:48:22;;;;;;;9.35;3.08;;;;;;;;;;5089185;28;20380;-71
2022/08/03 02:50:51;;;;;;;9.43;2.17;;;;;;;;;;5069082;28;20108;-72
2022/08/03 02:53:17;;;;;;;7.47;2.20;;;;;;;;;;5088531;28;20032;-71
2022/08/03 02:55:44;;;;;;;4.20;2.35;;;;;;;;;;5085188;28;20024;-71
2022/08/03 02:58:11;;;;;;;6.82;2.30;;;;;;;;;;5084493;28;20103;-71
2022/08/03 03:00:38;;;;;;;7.00;2.22;;;;;;;;;;5087629;28;20039;-72
2022/08/03 03:03:05;;;;;;;7.00;2.30;;;;;;;;;;5088508;28;20099;-70
2022/08/03 03:05:31;;;;;;;9.40;2.47;;;;;;;;;;5086761;28;20085;-70
2022/08/03 03:07:58;;;;;;;7.13;2.95;;;;;;;;;;5088892;28;20511;-70
2022/08/03 03:10:25;;;;;;;7.40;2.30;;;;;;;;;;5084669;28;20024;-71
2022/08/03 03:12:54;;;;;;;5.80;2.10;;;;;;;;;;5089223;28;20024;-71
2022/08/03 03:15:21;;;;;;;4.65;2.55;;;;;;;;;;5089658;28;20047;-70
2022/08/03 03:17:49;;;;;;;5.75;2.72;;;;;;;;;;5089178;28;20119;-70
2022/08/03 03:20:15;;;;;;;10.02;2.78;;;;;;;;;;5092672;28;20391;-68
2022/08/03 03:22:42;;;;;;;10.45;2.60;;;;;;;;;;5094376;28;20069;-69
2022/08/03 03:25:08;;;;;;;12.73;3.03;;;;;;;;;;5088605;28;20039;-69
2022/08/03 03:27:34;;;;;;;7.38;2.70;;;;;;;;;;5094232;28;20044;-69
2022/08/03 03:30:01;;;;;;;7.28;2.90;;;;;;;;;;5094672;28;20028;-69
2022/08/03 03:32:28;;;;;;;8.02;2.90;;;;;;;;;;5089521;28;20132;-70
2022/08/03 03:34:55;;;;;;;10.15;2.95;;;;;;;;;;5092096;28;20521;-71
2022/08/03 03:37:21;;;;;;;6.45;2.95;;;;;;;;;;5092826;28;20036;-70
2022/08/03 03:39:47;;;;;;;10.88;3.25;;;;;;;;;;5092198;28;20036;-70
2022/08/03 03:42:14;;;;;;;10.95;3.20;;;;;;;;;;5089005;28;20466;-70
2022/08/03 03:44:40;;;;;;;14.00;3.60;;;;;;;;;;5090655;28;20028;-70
2022/08/03 03:47:06;;;;;;;9.57;3.40;;;;;;;;;;5091378;28;20020;-71
2022/08/03 03:49:32;;;;;;;9.73;3.47;;;;;;;;;;5093076;28;20492;-70
2022/08/03 03:51:58;;;;;;;7.13;3.10;;;;;;;;;;5093947;28;20039;-68
2022/08/03 03:54:24;;;;;;;9.50;3.92;;;;;;;;;;5069462;28;20488;-69
2022/08/03 03:56:50;;;;;;;7.18;3.05;;;;;;;;;;5092175;28;20024;-69
2022/08/03 03:59:16;;;;;;;11.43;3.00;;;;;;;;;;5092439;28;20043;-69
2022/08/03 04:01:43;;;;;;;9.63;3.17;;;;;;;;;;5085372;28;20106;-68
2022/08/03 04:12:26;;;;;;;10.55;3.35;;;;;;;;;;5086683;28;20114;-69
2022/08/03 04:14:52;;;;;;;8.70;3.22;;;;;;;;;;5089916;28;20177;-69
2022/08/03 04:17:19;;;;;;;6.57;2.80;;;;;;;;;;5088312;28;20495;-69
2022/08/03 04:19:50;;;;;;;6.55;2.90;;;;;;;;;;5091659;28;20027;-69
2022/08/03 04:22:19;;;;;;;11.00;2.80;;;;;;;;;;5089788;28;20032;-70
2022/08/03 04:24:50;;;;;;;12.55;3.97;;;;;;;;;;5091418;28;20020;-70
2022/08/03 04:27:20;;;;;;;5.28;2.58;;;;;;;;;;5093352;28;20035;-72
2022/08/03 04:29:48;;;;;;;7.65;2.30;;;;;;;;;;5083096;28;20024;-72
2022/08/03 04:32:15;;;;;;;9.20;2.20;;;;;;;;;;5084376;28;20394;-70
2022/08/03 04:34:41;;;;;;;9.35;2.63;;;;;;;;;;5091249;28;20024;-70
2022/08/03 04:37:17;;;;;;;5.85;2.40;;;;;;;;;;5092852;28;20073;-71
2022/08/03 04:39:44;;;;;;;10.05;2.35;;;;;;;;;;5087366;28;20479;-70
2022/08/03 04:42:12;;;;;;;5.97;1.95;;;;;;;;;;5087233;28;20389;-70
2022/08/03 04:44:39;;;;;;;7.80;2.88;;;;;;;;;;5089684;28;20376;-70
2022/08/03 04:47:05;;;;;;;6.75;2.42;;;;;;;;;;5090919;28;20020;-71
2022/08/03 04:49:32;;;;;;;10.07;2.50;;;;;;;;;;5054097;28;20533;-70
2022/08/03 04:51:58;;;;;;;7.03;2.00;;;;;;;;;;5088745;28;20406;-69
2022/08/03 04:54:24;;;;;;;8.68;2.33;;;;;;;;;;5086971;28;20030;-69
2022/08/03 04:56:50;;;;;;;5.45;2.25;;;;;;;;;;5091018;28;20047;-70
2022/08/03 04:59:16;;;;;;;11.75;2.60;;;;;;;;;;5091978;28;20031;-70
2022/08/03 05:01:42;;;;;;;7.40;2.25;;;;;;;;;;5091218;28;20024;-70
2022/08/03 05:04:09;;;;;;;6.35;2.67;;;;;;;;;;5091806;28;20039;-70
2022/08/03 05:06:35;;;;;;;7.05;2.47;;;;;;;;;;5090904;28;20035;-70
2022/08/03 05:09:01;;;;;;;8.38;2.47;;;;;;;;;;5083862;28;20020;-70
2022/08/03 05:11:27;;;;;;;7.10;2.10;;;;;;;;;;5086343;28;20024;-71
2022/08/03 05:13:54;;;;;;;4.90;2.35;;;;;;;;;;5088676;28;20086;-70
2022/08/03 05:16:20;;;;;;;5.82;2.28;;;;;;;;;;5086102;28;20032;-70
2022/08/03 05:18:46;;;;;;;6.47;2.38;;;;;;;;;;5088513;28;20036;-69
2022/08/03 05:21:15;;;;;;;7.70;2.28;;;;;;;;;;5084268;28;20100;-68
2022/08/03 05:23:41;;;;;;;9.00;2.35;;;;;;;;;;5089918;28;20476;-68
2022/08/03 05:26:08;;;;;;;6.15;2.08;;;;;;;;;;5086440;28;20057;-68
2022/08/03 05:28:34;;;;;;;8.77;2.55;;;;;;;;;;5089077;28;20070;-68
2022/08/03 05:31:00;;;;;;;8.23;2.15;;;;;;;;;;5087091;28;21825;-68
2022/08/03 05:33:26;;;;;;;6.63;2.30;;;;;;;;;;5082164;28;20031;-68
2022/08/03 05:35:52;;;;;;;13.23;2.25;;;;;;;;;;5091074;28;20395;-71
2022/08/03 05:38:18;;;;;;;9.52;2.35;;;;;;;;;;5088202;28;20046;-70
2022/08/03 05:40:44;;;;;;;7.50;2.90;;;;;;;;;;5092091;28;20073;-70
2022/08/03 05:43:11;;;;;;;7.18;2.10;;;;;;;;;;5089506;28;20047;-70
2022/08/03 05:45:37;;;;;;;8.73;2.65;;;;;;;;;;5087409;28;20019;-70
2022/08/03 05:48:04;;;;;;;10.93;3.50;;;;;;;;;;5087658;28;20024;-68
2022/08/03 05:50:31;;;;;;;5.75;2.88;;;;;;;;;;5089682;28;20031;-68
2022/08/03 05:52:57;;;;;;;6.50;2.10;;;;;;;;;;5085123;28;20047;-70
2022/08/03 05:55:23;;;;;;;7.38;2.47;;;;;;;;;;5085451;28;20040;-70
2022/08/03 05:57:49;;;;;;;9.45;2.75;;;;;;;;;;5071702;28;20433;-70
2022/08/03 06:00:16;;;;;;;8.73;2.40;;;;;;;;;;5089249;28;20078;-70
2022/08/03 06:02:42;;;;;;;14.75;2.70;;;;;;;;;;5070197;28;20024;-70
2022/08/03 06:05:08;;;;;;;7.85;2.95;;;;;;;;;;5088738;28;20027;-71
2022/08/03 06:07:35;;;;;;;13.40;3.92;;;;;;;;;;5072763;28;20020;-70
2022/08/03 06:10:02;;;;;;;9.80;2.55;;;;;;;;;;5091091;28;20430;-70
2022/08/03 06:12:28;;;;;;;13.82;3.22;;;;;;;;;;5088893;28;20097;-70
2022/08/03 06:14:54;;;;;;;11.32;3.20;;;;;;;;;;5078520;28;20051;-69
2022/08/03 06:17:20;;;;;;;5.10;2.88;;;;;;;;;;5077482;28;20054;-71
2022/08/03 06:19:46;;;;;;;9.90;3.35;;;;;;;;;;5079555;28;20029;-72
2022/08/03 06:22:13;;;;;;;8.02;3.22;;;;;;;;;;5081453;28;20024;-70
2022/08/03 06:24:39;;;;;;;12.32;3.50;;;;;;;;;;5079215;28;20115;-71
2022/08/03 06:27:05;;;;;;;12.70;2.92;;;;;;;;;;5082446;28;20019;-71
2022/08/03 06:29:31;;;;;;;13.43;3.42;;;;;;;;;;5078009;28;20063;-72
2022/08/03 06:31:57;;;;;;;24.85;4.85;;;;;;;;;;5083979;28;20032;-71
2022/08/03 06:34:24;;;;;;;18.67;3.60;;;;;;;;;;5082178;28;20055;-70
2022/08/03 06:36:50;;;;;;;13.48;3.47;;;;;;;;;;5083639;28;20028;-70
2022/08/03 06:39:17;;;;;;;13.93;3.95;;;;;;;;;;5083477;28;20020;-70
2022/08/03 06:41:44;;;;;;;16.45;3.67;;;;;;;;;;5088648;28;20028;-70
2022/08/03 06:44:10;;;;;;;12.50;4.50;;;;;;;;;;5088594;28;20061;-69
2022/08/03 06:46:36;;;;;;;12.30;3.63;;;;;;;;;;5093395;28;20089;-67
2022/08/03 06:49:03;;;;;;;13.90;4.25;;;;;;;;;;5088899;28;20482;-68
2022/08/03 06:51:29;;;;;;;12.90;3.58;;;;;;;;;;5088666;28;20023;-69
2022/08/03 06:53:56;;;;;;;14.98;3.58;;;;;;;;;;5090907;28;20156;-69
2022/08/03 06:56:22;;;;;;;15.38;3.80;;;;;;;;;;5093681;28;20059;-70
2022/08/03 06:58:48;;;;;;;54.03;8.98;;;;;;;;;;5089764;28;20027;-68
2022/08/03 07:01:14;;;;;;;27.35;6.22;;;;;;;;;;5094444;28;20108;-71
2022/08/03 07:03:40;;;;;;;19.90;5.00;;;;;;;;;;5088670;28;20040;-72
2022/08/03 07:06:06;;;;;;;46.45;7.13;;;;;;;;;;5088990;28;20025;-73
2022/08/03 07:08:33;;;;;;;17.60;4.13;;;;;;;;;;5087621;28;20488;-73
2022/08/03 07:10:59;;;;;;;12.05;4.22;;;;;;;;;;5095731;28;20032;-72
2022/08/03 07:13:25;;;;;;;11.95;3.88;;;;;;;;;;5092486;28;20209;-72
2022/08/03 07:15:51;;;;;;;26.23;5.88;;;;;;;;;;5098540;28;20058;-72
2022/08/03 07:18:18;;;;;;;9.40;3.55;;;;;;;;;;5096773;28;20160;-72
2022/08/03 07:20:44;;;;;;;11.88;3.78;;;;;;;;;;5093283;28;20024;-71
2022/08/03 07:23:10;;;;;;;43.85;6.15;;;;;;;;;;5091753;28;20043;-71
2022/08/03 07:25:36;;;;;;;11.38;3.72;;;;;;;;;;5091809;28;20051;-71
2022/08/03 07:28:02;;;;;;;15.48;3.95;;;;;;;;;;5093037;28;20108;-71
2022/08/03 07:30:28;;;;;;;10.60;3.42;;;;;;;;;;5091290;28;20032;-71
2022/08/03 07:32:54;;;;;;;11.43;3.55;;;;;;;;;;5082700;28;20035;-71
2022/08/03 07:35:21;;;;;;;12.77;3.83;;;;;;;;;;5098518;28;20383;-71
2022/08/03 07:37:47;;;;;;;68.80;9.07;;;;;;;;;;5092866;28;20101;-71
2022/08/03 07:40:14;;;;;;;16.60;3.72;;;;;;;;;;5092807;28;20526;-71
2022/08/03 07:42:40;;;;;;;11.32;3.50;;;;;;;;;;5093222;28;20023;-71
2022/08/03 07:45:07;;;;;;;9.38;3.80;;;;;;;;;;5094907;28;20024;-71
2022/08/03 07:47:33;;;;;;;18.98;3.88;;;;;;;;;;5073351;28;20407;-71
2022/08/03 07:49:59;;;;;;;12.48;3.53;;;;;;;;;;5092445;28;20039;-71
2022/08/03 07:55:11;;;;;;;15.57;3.40;;;;;;;;;;5086316;28;20556;-71
2022/08/03 07:57:37;;;;;;;17.17;4.45;;;;;;;;;;5089503;28;20024;-71
2022/08/03 08:00:09;;;;;;;11.07;3.63;;;;;;;;;;5087757;28;20395;-71
2022/08/03 08:02:39;;;;;;;7.95;3.80;;;;;;;;;;5085369;28;20017;-70
2022/08/03 08:05:05;;;;;;;15.75;2.90;;;;;;;;;;5088865;28;20358;-71
2022/08/03 08:07:31;;;;;;;13.50;3.40;;;;;;;;;;5085910;28;20058;-71
2022/08/03 08:09:57;;;;;;;12.70;3.25;;;;;;;;;;5089688;28;20169;-71
2022/08/03 08:12:24;;;;;;;6.88;3.17;;;;;;;;;;5086007;28;20028;-72
2022/08/03 08:14:50;;;;;;;14.70;4.22;;;;;;;;;;5090652;28;20164;-72
2022/08/03 08:17:16;;;;;;;8.65;3.88;;;;;;;;;;5090175;28;20043;-73
2022/08/03 08:19:42;;;;;;;8.27;4.00;;;;;;;;;;5084689;28;20032;-73
2022/08/03 08:22:08;;;;;;;15.63;5.43;;;;;;;;;;5087128;28;20155;-73
2022/08/03 08:24:34;;;;;;;9.07;3.63;;;;;;;;;;5086390;28;20050;-73
2022/08/03 08:27:00;;;;;;;76.40;12.07;;;;;;;;;;5090704;28;20028;-72
2022/08/03 08:29:26;;;;;;;29.92;4.88;;;;;;;;;;5092721;28;20035;-73
2022/08/03 08:31:53;;;;;;;11.20;4.13;;;;;;;;;;5089717;28;20040;-73
2022/08/03 08:34:19;;;;;;;9.43;4.38;;;;;;;;;;5080860;28;20024;-73
2022/08/03 08:36:45;;;;;;;124.07;14.95;;;;;;;;;;5083074;28;20027;-73
2022/08/03 08:39:12;;;;;;;44.38;7.20;;;;;;;;;;5047348;28;20067;-73
2022/08/03 08:41:38;;;;;;;10.70;4.05;;;;;;;;;;5080945;28;20036;-72
2022/08/03 08:44:06;;;;;;;12.80;4.25;;;;;;;;;;5075737;28;20030;-73
2022/08/03 08:46:33;;;;;;;12.73;4.05;;;;;;;;;;5077542;28;20024;-72
2022/08/03 08:49:00;;;;;;;11.13;4.22;;;;;;;;;;5077069;28;20401;-72
2022/08/03 08:51:32;;;;;;;9.70;3.70;;;;;;;;;;5088053;28;20032;-72
2022/08/03 08:54:01;;;;;;;9.65;3.70;;;;;;;;;;5089099;28;20116;-72
2022/08/03 08:56:28;;;;;;;14.30;4.47;;;;;;;;;;5094767;28;20071;-72
2022/08/03 08:58:58;;;;;;;12.27;4.03;;;;;;;;;;5093357;28;20024;-72
2022/08/03 09:01:24;;;;;;;11.32;3.95;;;;;;;;;;5091258;28;20021;-72
2022/08/03 09:03:52;;;;;;;11.45;4.05;;;;;;;;;;5088262;28;20024;-71
2022/08/03 09:06:18;;;;;;;12.45;4.10;;;;;;;;;;5083774;28;20031;-71
2022/08/03 09:08:44;;;;;;;14.38;4.25;;;;;;;;;;5085087;28;20054;-72
2022/08/03 09:11:10;;;;;;;15.55;4.47;;;;;;;;;;5086367;28;20579;-72
2022/08/03 09:13:36;;;;;;;12.55;4.18;;;;;;;;;;5080733;28;20365;-72
2022/08/03 09:16:10;;;;;;;11.63;4.60;;;;;;;;;;5093930;28;20055;-73
2022/08/03 09:18:37;;;;;;;8.57;4.30;;;;;;;;;;5084170;28;20067;-72
2022/08/03 09:21:16;;;;;;;14.07;4.28;;;;;;;;;;5084666;28;20463;-72
2022/08/03 09:23:46;;;;;;;10.77;4.63;;;;;;;;;;5088297;28;20488;-72
2022/08/03 09:26:12;;;;;;;10.00;4.20;;;;;;;;;;5090245;28;20024;-71
2022/08/03 09:28:38;;;;;;;12.00;4.20;;;;;;;;;;5089567;28;20032;-72
2022/08/03 09:31:07;;;;;;;14.07;3.88;;;;;;;;;;5090902;28;20032;-72
2022/08/03 09:33:45;;;;;;;12.00;4.50;;;;;;;;;;5087858;28;20024;-73
2022/08/03 09:36:31;;;;;;;13.75;3.97;;;;;;;;;;5083669;28;20032;-72
2022/08/03 09:39:04;;;;;;;10.38;3.65;;;;;;;;;;5090779;28;20051;-72
2022/08/03 09:41:30;;;;;;;;;;;;;;;;;;5091445;28;20103;-72
2022/08/03 09:43:56;;;;;;;12.98;4.05;;;;;;;;;;5091656;28;20354;-72
2022/08/03 09:46:22;;;;;;;10.02;3.53;;;;;;;;;;5094852;28;20107;-72
2022/08/03 09:48:48;;;;;;;8.27;3.40;;;;;;;;;;5062023;28;20032;-72
2022/08/03 09:51:17;;;;;;;10.98;3.17;;;;;;;;;;5090787;28;20077;-72
2022/08/03 09:53:44;;;;;;;11.00;2.85;;;;;;;;;;5089449;28;20031;-72
2022/08/03 09:56:10;;;;;;;6.43;2.75;;;;;;;;;;5088662;28;20032;-72
2022/08/03 09:58:44;;;;;;;7.90;2.30;;;;;;;;;;5088574;28;20100;-72
2022/08/03 10:01:10;;;;;;;10.15;2.42;;;;;;;;;;5089355;28;20028;-70
2022/08/03 10:03:38;;;;;;;10.40;2.92;;;;;;;;;;5085098;28;20531;-70
2022/08/03 10:06:15;;;;;;;12.43;2.40;;;;;;;;;;5091365;28;20012;-70
2022/08/03 10:08:41;;;;;;;13.75;3.08;;;;;;;;;;5084093;28;20060;-70
2022/08/03 10:11:07;;;;;;;7.65;2.13;;;;;;;;;;5070584;28;20483;-70
2022/08/03 10:13:33;;;;;;;8.55;2.38;;;;;;;;;;5070769;28;20518;-70
2022/08/03 10:16:00;;;;;;;11.15;2.72;;;;;;;;;;5094708;28;20058;-70
2022/08/03 10:18:26;;;;;;;10.15;2.45;;;;;;;;;;5098022;28;20487;-70
2022/08/03 10:20:54;;;;;;;11.07;2.67;;;;;;;;;;5090800;28;20020;-70
2022/08/03 10:23:21;;;;;;;13.25;3.30;;;;;;;;;;5081991;28;20032;-70
2022/08/03 10:25:49;;;;;;;10.65;2.40;;;;;;;;;;5079624;28;20024;-71
2022/08/03 10:28:16;;;;;;;8.23;2.60;;;;;;;;;;5092414;28;20028;-71
2022/08/03 10:30:44;;;;;;;11.88;2.88;;;;;;;;;;5089991;28;20032;-71
2022/08/03 10:33:20;;;;;;;11.88;2.55;;;;;;;;;;5088662;28;20031;-71
2022/08/03 10:35:47;;;;;;;7.95;2.38;;;;;;;;;;5086497;28;20039;-70
2022/08/03 10:38:17;;;;;;;6.30;2.40;;;;;;;;;;5074061;28;20034;-70
2022/08/03 10:40:43;;;;;;;10.40;2.72;;;;;;;;;;5092508;28;20423;-70
2022/08/03 10:43:12;;;;;;;10.25;2.75;;;;;;;;;;5091298;28;20020;-70
2022/08/03 10:45:40;;;;;;;7.85;2.60;;;;;;;;;;5090801;28;20043;-69
2022/08/03 10:48:07;;;;;;;10.73;2.60;;;;;;;;;;5092457;28;20031;-69
2022/08/03 10:50:34;;;;;;;9.85;2.55;;;;;;;;;;5093654;28;20055;-69
2022/08/03 10:53:07;;;;;;;10.55;2.45;;;;;;;;;;5093740;28;20046;-69
2022/08/03 10:58:42;;;;;;;10.00;2.70;;;;;;;;;;5087357;28;20511;-69
2022/08/03 11:01:09;;;;;;;10.95;2.88;;;;;;;;;;5074619;28;20036;-69
2022/08/03 11:03:54;;;;;;;12.27;3.15;;;;;;;;;;5078029;28;20023;-70
2022/08/03 11:06:20;;;;;;;10.82;2.35;;;;;;;;;;5081678;28;20544;-70
2022/08/03 11:08:46;;;;;;;12.25;2.42;;;;;;;;;;5086263;28;20029;-69
2022/08/03 11:11:18;;;;;;;5.93;2.22;;;;;;;;;;5087627;28;20020;-70
2022/08/03 11:14:01;;;;;;;10.35;2.60;;;;;;;;;;5071451;28;20523;-70
2022/08/03 11:16:28;;;;;;;8.00;2.20;;;;;;;;;;5087768;28;20392;-71
2022/08/03 11:19:04;;;;;;;11.88;2.03;;;;;;;;;;5091747;28;20468;-71
2022/08/03 11:21:52;;;;;;;11.70;2.47;;;;;;;;;;5068196;28;20031;-71
2022/08/03 11:24:50;;;;;;;13.50;2.55;;;;;;;;;;5086524;28;20028;-76
2022/08/03 11:27:34;;;;;;;9.23;2.47;;;;;;;;;;5073119;28;20033;-70
2022/08/03 11:30:01;;;;;;;7.00;2.38;;;;;;;;;;5086244;28;20230;-70
2022/08/03 11:32:39;;;;;;;8.77;2.38;;;;;;;;;;5067116;28;20416;-70
2022/08/03 11:35:08;;;;;;;11.60;2.88;;;;;;;;;;5078249;28;20050;-69
2022/08/03 11:37:35;;;;;;;13.27;2.30;;;;;;;;;;5086152;28;20032;-69
2022/08/03 11:40:01;;;;;;;7.03;2.25;;;;;;;;;;5086832;28;20032;-69
2022/08/03 11:42:28;;;;;;;12.18;2.38;;;;;;;;;;5071335;28;20123;-69
2022/08/03 11:44:55;;;;;;;14.23;2.80;;;;;;;;;;5083443;28;20136;-70
2022/08/03 11:47:25;;;;;;;12.43;2.28;;;;;;;;;;5082357;28;20020;-69
2022/08/03 11:49:54;;;;;;;11.00;1.90;;;;;;;;;;5080204;28;20024;-70
2022/08/03 11:52:20;;;;;;;7.82;2.60;;;;;;;;;;5079963;28;20117;-70
2022/08/03 11:54:50;;;;;;;11.50;2.83;;;;;;;;;;5079218;28;20035;-70
2022/08/03 11:57:28;;;;;;;10.07;2.00;;;;;;;;;;5078819;28;20028;-70
2022/08/03 11:59:54;;;;;;;14.25;2.60;;;;;;;;;;5086650;28;20111;-71
2022/08/03 12:02:21;;;;;;;9.02;2.03;;;;;;;;;;5077853;28;20013;-70
2022/08/03 12:04:57;;;;;;;10.48;2.00;;;;;;;;;;5084614;28;20069;-70
2022/08/03 12:07:23;;;;;;;6.43;1.63;;;;;;;;;;5078793;28;20026;-70
2022/08/03 12:10:09;;;;;;;8.48;2.20;;;;;;;;;;5080072;28;20119;-71
2022/08/03 12:12:35;;;;;;;7.43;2.22;;;;;;;;;;5084942;28;20112;-70
2022/08/03 12:15:02;;;;;;;10.40;2.38;;;;;;;;;;5087909;28;20499;-70
2022/08/03 12:17:38;;;;;;;9.35;1.80;;;;;;;;;;5082920;28;20032;-70
2022/08/03 12:20:06;;;;;;;7.22;2.00;;;;;;;;;;5066898;28;20679;-70
2022/08/03 12:22:37;;;;;;;9.60;2.30;;;;;;;;;;5081420;28;20028;-70
2022/08/03 12:25:04;;;;;;;8.45;1.52;;;;;;;;;;5079782;28;20028;-70
2022/08/03 12:27:30;;;;;;;10.60;2.38;;;;;;;;;;5063125;28;20059;-71
2022/08/03 12:29:57;;;;;;;6.45;1.73;;;;;;;;;;5082240;28;20081;-70
2022/08/03 12:32:24;;;;;;;9.45;1.70;;;;;;;;;;5080408;28;20021;-70
2022/08/03 12:34:51;;;;;;;6.45;2.00;;;;;;;;;;5078391;28;20025;-70
2022/08/03 12:37:21;;;;;;;6.40;1.55;;;;;;;;;;5080645;28;20530;-70
2022/08/03 12:39:54;;;;;;;13.63;2.03;;;;;;;;;;5081945;28;20692;-71
2022/08/03 12:42:20;;;;;;;7.90;2.13;;;;;;;;;;5082247;28;20530;-70
2022/08/03 12:44:47;;;;;;;6.07;1.90;;;;;;;;;;5080398;28;20070;-70
2022/08/03 12:47:14;;;;;;;7.82;2.05;;;;;;;;;;5080005;28;20032;-70
2022/08/03 12:49:45;;;;;;;11.23;1.98;;;;;;;;;;5079020;28;20039;-70
2022/08/03 12:52:11;;;;;;;6.80;1.83;;;;;;;;;;5080431;28;20042;-70
2022/08/03 12:54:37;;;;;;;11.82;2.22;;;;;;;;;;5077534;28;20103;-70
2022/08/03 12:57:05;;;;;;;12.52;2.13;;;;;;;;;;5075461;28;20069;-70
2022/08/03 12:59:32;;;;;;;6.05;1.67;;;;;;;;;;5077803;28;20427;-70
2022/08/03 13:01:58;;;;;;;11.93;2.38;;;;;;;;;;5080855;28;20036;-70
2022/08/03 13:04:25;;;;;;;8.60;2.03;;;;;;;;;;5064006;28;20019;-70
2022/08/03 13:06:59;;;;;;;8.55;2.00;;;;;;;;;;5079554;28;20117;-70
2022/08/03 13:09:25;;;;;;;9.27;2.40;;;;;;;;;;5081588;28;20032;-70
2022/08/03 13:12:05;;;;;;;8.05;2.10;;;;;;;;;;5061077;28;20030;-70
2022/08/03 13:14:32;;;;;;;9.07;2.30;;;;;;;;;;5082050;28;20143;-70
2022/08/03 13:16:58;;;;;;;9.30;2.03;;;;;;;;;;5077651;28;20392;-70
2022/08/03 13:19:24;;;;;;;5.57;2.20;;;;;;;;;;5077480;28;20028;-70
2022/08/03 13:21:50;;;;;;;7.10;2.20;;;;;;;;;;5057621;28;20112;-70
2022/08/03 13:24:17;;;;;;;7.13;1.92;;;;;;;;;;5079710;28;20028;-69
2022/08/03 13:26:43;;;;;;;11.20;2.45;;;;;;;;;;5085516;28;20024;-70
2022/08/03 13:29:09;;;;;;;11.77;2.03;;;;;;;;;;5079746;28;20028;-69
2022/08/03 13:31:35;;;;;;;8.25;2.03;;;;;;;;;;5083048;28;20031;-69
2022/08/03 13:34:01;;;;;;;7.97;1.77;;;;;;;;;;5081122;28;20121;-70
2022/08/03 13:36:27;;;;;;;6.55;1.60;;;;;;;;;;5081531;28;20488;-69
2022/08/03 13:38:54;;;;;;;12.82;2.75;;;;;;;;;;5076467;28;20050;-69
2022/08/03 13:41:21;;;;;;;8.88;1.65;;;;;;;;;;5082366;28;20024;-70
2022/08/03 13:43:47;;;;;;;10.32;2.50;;;;;;;;;;5063548;28;20028;-69
2022/08/03 13:46:13;;;;;;;8.40;1.67;;;;;;;;;;5061964;28;20024;-69
2022/08/03 13:48:40;;;;;;;6.55;1.48;;;;;;;;;;5058007;28;20044;-70
2022/08/03 13:51:06;;;;;;;5.60;1.58;;;;;;;;;;5078926;28;20040;-70
2022/08/03 13:53:32;;;;;;;7.65;2.03;;;;;;;;;;5075232;28;22250;-70
2022/08/03 13:55:58;;;;;;;3.53;1.40;;;;;;;;;;5077351;28;20047;-70
2022/08/03 13:58:24;;;;;;;7.03;1.50;;;;;;;;;;5078857;28;20028;-70
2022/08/03 14:00:50;;;;;;;9.40;1.95;;;;;;;;;;5079611;28;20111;-70
2022/08/03 14:03:16;;;;;;;8.38;2.28;;;;;;;;;;5078831;28;20391;-69
2022/08/03 14:05:43;;;;;;;4.85;1.20;;;;;;;;;;5079453;28;20046;-70
2022/08/03 14:08:09;;;;;;;6.50;1.75;;;;;;;;;;5060072;28;20032;-70
2022/08/03 14:10:37;;;;;;;6.70;0.93;;;;;;;;;;5076803;28;20032;-70
2022/08/03 14:13:03;;;;;;;9.55;1.42;;;;;;;;;;5076782;28;20472;-70
2022/08/03 14:15:30;;;;;;;4.75;1.00;;;;;;;;;;5077829;28;20044;-69
2022/08/03 14:17:56;;;;;;;9.05;1.20;;;;;;;;;;5079971;28;20016;-70
2022/08/03 14:20:22;;;;;;;6.82;1.05;;;;;;;;;;5083580;28;20110;-70
2022/08/03 14:22:48;;;;;;;7.28;1.10;;;;;;;;;;5086602;28;20085;-70
2022/08/03 14:25:14;;;;;;;3.22;0.98;;;;;;;;;;5083730;28;20141;-70
2022/08/03 14:27:41;;;;;;;4.80;1.00;;;;;;;;;;5082058;28;20047;-70
2022/08/03 14:30:07;;;;;;;5.75;0.70;;;;;;;;;;5057171;28;20043;-70
2022/08/03 14:32:33;;;;;;;2.05;0.75;;;;;;;;;;5083933;28;20073;-70
2022/08/03 14:34:59;;;;;;;4.15;0.95;;;;;;;;;;5083640;28;20020;-71
2022/08/03 14:37:25;;;;;;;6.32;0.80;;;;;;;;;;5081385;28;20035;-70
2022/08/03 14:39:51;;;;;;;3.35;0.70;;;;;;;;;;5077272;28;20028;-70
2022/08/03 14:42:19;;;;;;;3.30;0.40;;;;;;;;;;5081193;28;20342;-70
2022/08/03 14:44:45;;;;;;;2.60;0.65;;;;;;;;;;5082537;28;20415;-70
2022/08/03 14:47:11;;;;;;;1.98;0.60;;;;;;;;;;5077781;28;20499;-70
2022/08/03 14:49:37;;;;;;;3.25;0.68;;;;;;;;;;5070277;28;20032;-70
2022/08/03 14:52:04;;;;;;;2.33;0.60;;;;;;;;;;5091223;28;20229;-70
2022/08/03 14:54:30;;;;;;;0.98;0.50;;;;;;;;;;5089727;28;20020;-70